createdAt,value
2023-04-02T00:01:05.022Z,11.40
2023-04-02T00:03:55.687Z,11.35
2023-04-02T00:06:46.561Z,11.29
2023-04-02T00:09:25.605Z,11.35
2023-04-02T00:12:00.878Z,11.41
2023-04-02T00:14:37.916Z,11.40
2023-04-02T00:17:11.640Z,11.42
2023-04-02T00:20:00.833Z,11.38
2023-04-02T00:22:34.905Z,11.36
2023-04-02T00:25:16.202Z,11.37
2023-04-02T00:27:49.803Z,11.33
2023-04-02T00:30:23.091Z,11.38
2023-04-02T00:32:56.520Z,11.47
2023-04-02T00:35:32.947Z,11.57
2023-04-02T00:38:06.148Z,11.55
2023-04-02T00:40:44.556Z,11.54
2023-04-02T00:43:18.481Z,11.61
2023-04-02T00:46:02.100Z,11.63
2023-04-02T00:48:35.045Z,11.65
2023-04-02T00:51:37.633Z,11.67
2023-04-02T00:54:16.304Z,11.65
2023-04-02T00:56:54.244Z,11.66
2023-04-02T00:59:37.276Z,11.66
2023-04-02T01:02:18.891Z,11.54
2023-04-02T01:05:03.031Z,11.47
2023-04-02T01:08:00.176Z,11.51
2023-04-02T01:10:43.845Z,11.47
2023-04-02T01:13:50.882Z,11.36
2023-04-02T01:16:23.672Z,11.32
2023-04-02T01:19:26.506Z,11.33
2023-04-02T01:22:08.652Z,11.22
2023-04-02T01:24:44.642Z,11.22
2023-04-02T01:27:48.120Z,11.18
2023-04-02T01:30:22.629Z,11.16
2023-04-02T01:32:56.659Z,11.15
2023-04-02T01:35:34.280Z,11.13
2023-04-02T01:38:23.204Z,11.16
2023-04-02T01:41:14.888Z,11.18
2023-04-02T01:43:55.402Z,11.19
2023-04-02T01:46:36.196Z,11.19
2023-04-02T01:49:22.840Z,11.17
2023-04-02T01:52:00.650Z,11.03
2023-04-02T01:54:39.663Z,11.03
2023-04-02T01:57:13.017Z,11.11
2023-04-02T01:59:46.671Z,11.12
2023-04-02T02:02:22.637Z,11.22
2023-04-02T02:04:56.603Z,11.28
2023-04-02T02:07:30.299Z,11.33
2023-04-02T02:10:04.409Z,11.37
2023-04-02T02:12:37.973Z,11.38
2023-04-02T02:15:18.951Z,11.41
2023-04-02T02:17:57.064Z,11.43
2023-04-02T02:20:31.765Z,11.35
2023-04-02T02:23:06.752Z,11.39
2023-04-02T02:25:41.029Z,11.31
2023-04-02T02:28:37.655Z,11.18
2023-04-02T02:31:20.055Z,11.23
2023-04-02T02:33:57.284Z,11.29
2023-04-02T02:36:36.099Z,11.34
2023-04-02T02:39:28.982Z,11.33
2023-04-02T02:42:13.364Z,11.34
2023-04-02T02:44:52.632Z,11.36
2023-04-02T02:47:38.582Z,11.35
2023-04-02T02:50:21.268Z,11.31
2023-04-02T02:52:57.494Z,11.32
2023-04-02T02:55:37.647Z,11.42
2023-04-02T02:58:39.320Z,11.46
2023-04-02T03:01:23.170Z,11.44
2023-04-02T03:03:58.293Z,11.43
2023-04-02T03:06:31.723Z,11.38
2023-04-02T03:09:22.834Z,11.40
2023-04-02T03:12:10.474Z,11.33
2023-04-02T03:15:13.069Z,11.28
2023-04-02T03:17:55.617Z,11.10
2023-04-02T03:20:45.769Z,11.10
2023-04-02T03:23:43.634Z,11.10
2023-04-02T03:26:28.661Z,11.11
2023-04-02T03:29:20.482Z,11.08
2023-04-02T03:32:25.301Z,10.98
2023-04-02T03:35:19.796Z,10.98
2023-04-02T03:38:07.471Z,11.00
2023-04-02T03:41:01.212Z,10.98
2023-04-02T03:43:47.282Z,11.00
2023-04-02T03:46:43.544Z,10.90
2023-04-02T03:49:32.292Z,10.93
2023-04-02T03:52:31.103Z,10.91
2023-04-02T03:55:16.319Z,10.95
2023-04-02T03:58:17.192Z,10.98
2023-04-02T04:00:55.686Z,11.02
2023-04-02T04:03:39.353Z,11.03
2023-04-02T04:06:23.495Z,11.04
2023-04-02T04:09:08.506Z,10.94
2023-04-02T04:11:50.064Z,10.87
2023-04-02T04:14:32.370Z,10.83
2023-04-02T04:17:18.083Z,10.87
2023-04-02T04:20:03.607Z,10.93
2023-04-02T04:22:37.400Z,10.93
2023-04-02T04:25:34.669Z,11.06
2023-04-02T04:28:59.185Z,11.08
2023-04-02T04:31:51.242Z,10.97
2023-04-02T04:34:42.834Z,10.99
2023-04-02T04:37:29.532Z,11.03
2023-04-02T04:40:12.346Z,10.98
2023-04-02T04:42:48.523Z,11.04
2023-04-02T04:45:32.913Z,10.96
2023-04-02T04:48:20.902Z,10.93
2023-04-02T04:51:12.712Z,10.94
2023-04-02T04:53:51.295Z,10.96
2023-04-02T04:56:28.513Z,11.00
2023-04-02T04:59:27.823Z,10.99
2023-04-02T05:02:12.418Z,11.01
2023-04-02T05:04:52.108Z,11.12
2023-04-02T05:07:45.363Z,11.14
2023-04-02T05:10:39.738Z,11.15
2023-04-02T05:13:23.969Z,11.12
2023-04-02T05:16:10.631Z,11.18
2023-04-02T05:18:52.001Z,11.25
2023-04-02T05:21:37.138Z,11.27
2023-04-02T05:24:28.229Z,11.27
2023-04-02T05:27:07.933Z,11.27
2023-04-02T05:29:45.674Z,11.30
2023-04-02T05:32:25.220Z,11.28
2023-04-02T05:35:00.440Z,11.28
2023-04-02T05:37:34.371Z,11.31
2023-04-02T05:40:22.997Z,11.40
2023-04-02T05:42:57.639Z,11.36
2023-04-02T05:45:40.573Z,11.36
2023-04-02T05:48:47.728Z,11.37
2023-04-02T05:51:31.667Z,11.38
2023-04-02T05:54:08.759Z,11.38
2023-04-02T05:56:48.062Z,11.34
2023-04-02T05:59:31.211Z,11.34
2023-04-02T06:02:37.742Z,11.36
2023-04-02T06:05:27.403Z,11.43
2023-04-02T06:08:25.292Z,11.42
2023-04-02T06:11:15.579Z,11.47
2023-04-02T06:13:49.052Z,11.55
2023-04-02T06:16:26.482Z,11.67
2023-04-02T06:19:00.586Z,11.78
2023-04-02T06:21:34.938Z,11.76
2023-04-02T06:24:11.419Z,11.83
2023-04-02T06:26:56.729Z,11.97
2023-04-02T06:29:44.270Z,11.93
2023-04-02T06:32:27.563Z,11.97
2023-04-02T06:35:00.343Z,12.05
2023-04-02T06:37:43.198Z,12.09
2023-04-02T06:40:43.812Z,12.03
2023-04-02T06:43:53.349Z,12.14
2023-04-02T06:47:07.737Z,12.12
2023-04-02T06:49:53.576Z,12.10
2023-04-02T06:52:35.779Z,12.08
2023-04-02T06:55:32.984Z,12.16
2023-04-02T06:58:07.015Z,11.96
2023-04-02T07:00:43.088Z,11.93
2023-04-02T07:03:34.530Z,12.10
2023-04-02T07:06:25.670Z,11.89
2023-04-02T07:09:01.227Z,11.98
2023-04-02T07:11:34.632Z,11.82
2023-04-02T07:14:15.278Z,11.84
2023-04-02T07:16:48.947Z,11.91
2023-04-02T07:19:24.396Z,11.95
2023-04-02T07:22:01.468Z,11.92
2023-04-02T07:24:41.895Z,11.78
2023-04-02T07:27:15.950Z,11.84
2023-04-02T07:29:49.233Z,11.82
2023-04-02T07:32:22.225Z,11.85
2023-04-02T07:34:55.200Z,11.73
2023-04-02T07:37:28.714Z,11.64
2023-04-02T07:40:01.714Z,11.62
2023-04-02T07:42:35.242Z,11.63
2023-04-02T07:45:08.463Z,11.69
2023-04-02T07:47:42.489Z,11.62
2023-04-02T07:50:16.319Z,11.71
2023-04-02T07:52:50.202Z,11.70
2023-04-02T07:55:23.386Z,11.69
2023-04-02T07:57:59.754Z,11.68
2023-04-02T08:00:33.501Z,11.62
2023-04-02T08:03:07.517Z,11.62
2023-04-02T08:05:41.577Z,11.63
2023-04-02T08:08:14.762Z,11.63
2023-04-02T08:10:48.367Z,11.59
2023-04-02T08:13:22.549Z,11.53
2023-04-02T08:15:55.754Z,11.58
2023-04-02T08:18:29.355Z,11.51
2023-04-02T08:21:02.955Z,11.46
2023-04-02T08:23:36.430Z,11.41
2023-04-02T08:26:09.723Z,11.28
2023-04-02T08:28:43.915Z,11.19
2023-04-02T08:31:17.654Z,11.33
2023-04-02T08:33:51.168Z,11.30
2023-04-02T08:36:32.382Z,11.22
2023-04-02T08:39:06.534Z,11.26
2023-04-02T08:42:20.648Z,11.26
2023-04-02T08:45:25.292Z,11.20
2023-04-02T08:48:04.006Z,11.14
2023-04-02T08:50:42.821Z,11.05
2023-04-02T08:53:31.767Z,11.07
2023-04-02T08:56:27.801Z,11.14
2023-04-02T08:59:05.589Z,11.17
2023-04-02T09:02:00.537Z,11.07
2023-04-02T09:04:37.387Z,11.08
2023-04-02T09:07:15.015Z,11.10
2023-04-02T09:09:51.845Z,11.15
2023-04-02T09:12:30.956Z,11.21
2023-04-02T09:15:18.916Z,11.17
2023-04-02T09:17:54.842Z,11.26
2023-04-02T09:20:29.979Z,11.30
2023-04-02T09:23:03.265Z,11.30
2023-04-02T09:25:37.301Z,11.29
2023-04-02T09:28:13.921Z,11.19
2023-04-02T09:31:22.663Z,11.16
2023-04-02T09:33:56.883Z,11.15
2023-04-02T09:36:42.739Z,11.20
2023-04-02T09:39:23.459Z,11.14
2023-04-02T09:42:05.418Z,10.97
2023-04-02T09:44:40.593Z,11.01
2023-04-02T09:47:29.337Z,11.00
2023-04-02T09:50:36.147Z,11.03
2023-04-02T09:53:50.316Z,11.06
2023-04-02T09:56:28.597Z,11.09
2023-04-02T09:59:22.535Z,11.17
2023-04-02T10:01:58.535Z,11.15
2023-04-02T10:04:48.565Z,11.26
2023-04-02T10:07:37.010Z,11.21
2023-04-02T10:10:27.740Z,11.35
2023-04-02T10:13:05.365Z,11.41
2023-04-02T10:15:45.442Z,11.53
2023-04-02T10:18:34.842Z,11.57
2023-04-02T10:21:10.115Z,11.74
2023-04-02T10:23:43.744Z,11.88
2023-04-02T10:26:41.823Z,12.08
2023-04-02T10:29:32.722Z,12.12
2023-04-02T10:32:37.666Z,12.08
2023-04-02T10:35:30.316Z,12.02
2023-04-02T10:38:13.530Z,11.94
2023-04-02T10:41:01.079Z,11.90
2023-04-02T10:43:50.596Z,11.73
2023-04-02T10:46:34.850Z,11.59
2023-04-02T10:49:30.966Z,11.31
2023-04-02T10:52:23.064Z,11.44
2023-04-02T10:55:17.291Z,11.53
2023-04-02T10:57:53.263Z,11.72
2023-04-02T11:00:35.477Z,11.91
2023-04-02T11:03:10.922Z,12.01
2023-04-02T11:05:48.640Z,12.16
2023-04-02T11:08:52.693Z,12.35
2023-04-02T11:11:37.446Z,12.49
2023-04-02T11:14:25.818Z,12.65
2023-04-02T11:17:01.255Z,12.77
2023-04-02T11:19:38.274Z,12.83
2023-04-02T11:22:26.058Z,13.04
2023-04-02T11:25:00.431Z,13.22
2023-04-02T11:27:34.920Z,13.41
2023-04-02T11:30:09.541Z,13.53
2023-04-02T11:32:50.118Z,13.67
2023-04-02T11:35:42.111Z,13.82
2023-04-02T11:38:26.104Z,13.91
2023-04-02T11:40:58.801Z,14.20
2023-04-02T11:43:38.878Z,14.41
2023-04-02T11:46:32.578Z,14.56
2023-04-02T11:49:41.469Z,14.60
2023-04-02T11:52:27.063Z,14.61
2023-04-02T11:55:07.884Z,14.82
2023-04-02T11:57:44.693Z,14.92
2023-04-02T12:00:40.575Z,14.91
2023-04-02T12:03:26.159Z,15.05
2023-04-02T12:06:16.710Z,15.27
2023-04-02T12:09:05.701Z,15.23
2023-04-02T12:11:42.484Z,15.23
2023-04-02T12:14:38.806Z,15.44
2023-04-02T12:17:31.256Z,15.40
2023-04-02T12:20:13.999Z,15.61
2023-04-02T12:22:58.146Z,15.71
2023-04-02T12:25:42.030Z,15.87
2023-04-02T12:28:15.005Z,15.76
2023-04-02T12:30:49.374Z,15.50
2023-04-02T12:33:34.646Z,15.45
2023-04-02T12:36:20.176Z,15.43
2023-04-02T12:38:58.758Z,15.68
2023-04-02T12:41:34.167Z,15.95
2023-04-02T12:44:12.218Z,15.71
2023-04-02T12:46:46.878Z,15.86
2023-04-02T12:49:40.930Z,15.96
2023-04-02T12:52:19.921Z,15.66
2023-04-02T12:54:59.126Z,15.64
2023-04-02T12:57:40.698Z,15.76
2023-04-02T13:00:27.583Z,15.96
2023-04-02T13:03:22.030Z,15.93
2023-04-02T13:05:59.182Z,15.85
2023-04-02T13:08:40.295Z,15.93
2023-04-02T13:11:13.188Z,15.90
2023-04-02T13:13:49.237Z,15.88
2023-04-02T13:16:21.618Z,15.85
2023-04-02T13:19:11.353Z,15.64
2023-04-02T13:21:44.181Z,15.50
2023-04-02T13:24:25.767Z,15.38
2023-04-02T13:27:02.876Z,15.47
2023-04-02T13:29:39.606Z,15.46
2023-04-02T13:32:16.069Z,15.34
2023-04-02T13:34:49.186Z,15.25
2023-04-02T13:37:22.680Z,15.12
2023-04-02T13:39:55.557Z,15.08
2023-04-02T13:42:28.785Z,15.17
2023-04-02T13:45:02.190Z,15.16
2023-04-02T13:47:34.943Z,15.00
2023-04-02T13:50:08.688Z,14.89
2023-04-02T13:52:42.059Z,14.63
2023-04-02T13:55:16.570Z,14.54
2023-04-02T13:57:50.637Z,14.47
2023-04-02T14:00:24.424Z,14.53
2023-04-02T14:03:05.563Z,14.58
2023-04-02T14:05:56.111Z,14.52
2023-04-02T14:09:00.415Z,14.42
2023-04-02T14:11:47.234Z,14.39
2023-04-02T14:14:34.261Z,14.24
2023-04-02T14:17:12.664Z,14.37
2023-04-02T14:20:12.751Z,14.21
2023-04-02T14:23:14.992Z,14.14
2023-04-02T14:26:18.321Z,14.17
2023-04-02T14:29:07.719Z,14.23
2023-04-02T14:31:51.750Z,14.04
2023-04-02T14:34:45.907Z,13.75
2023-04-02T14:37:34.396Z,13.65
2023-04-02T14:40:26.179Z,13.75
2023-04-02T14:43:05.350Z,13.74
2023-04-02T14:46:07.021Z,13.60
2023-04-02T14:48:54.848Z,13.56
2023-04-02T14:51:47.353Z,13.63
2023-04-02T14:54:39.950Z,13.60
2023-04-02T14:57:22.463Z,13.55
2023-04-02T15:00:35.066Z,13.61
2023-04-02T15:03:24.936Z,13.67
2023-04-02T15:06:02.180Z,13.53
2023-04-02T15:08:48.276Z,13.38
2023-04-02T15:11:41.890Z,13.27
2023-04-02T15:14:24.339Z,13.02
2023-04-02T15:16:56.453Z,13.02
2023-04-02T15:19:29.961Z,12.95
2023-04-02T15:22:34.043Z,12.95
2023-04-02T15:25:31.939Z,12.78
2023-04-02T15:28:10.091Z,12.86
2023-04-02T15:30:47.032Z,12.84
2023-04-02T15:33:38.549Z,12.93
2023-04-02T15:36:41.988Z,12.85
2023-04-02T15:39:20.604Z,12.97
2023-04-02T15:42:05.866Z,12.83
2023-04-02T15:44:46.686Z,12.82
2023-04-02T15:47:49.813Z,12.86
2023-04-02T15:50:52.986Z,12.84
2023-04-02T15:53:48.808Z,12.76
2023-04-02T15:56:59.080Z,12.78
2023-04-02T16:00:00.585Z,12.88
2023-04-02T16:02:43.175Z,12.76
2023-04-02T16:05:37.351Z,12.66
2023-04-02T16:08:15.711Z,12.74
2023-04-02T16:10:49.175Z,12.74
2023-04-02T16:13:42.301Z,12.72
2023-04-02T16:16:37.872Z,12.80
2023-04-02T16:19:30.909Z,12.77
2023-04-02T16:22:21.265Z,12.84
2023-04-02T16:25:10.278Z,12.86
2023-04-02T16:27:52.768Z,12.88
2023-04-02T16:30:45.957Z,12.88
2023-04-02T16:33:39.633Z,12.86
2023-04-02T16:36:54.401Z,12.83
2023-04-02T16:39:29.710Z,12.78
2023-04-02T16:42:21.485Z,12.73
2023-04-02T16:44:54.420Z,12.69
2023-04-02T16:47:40.055Z,12.68
2023-04-02T16:50:16.009Z,12.57
2023-04-02T16:53:00.275Z,12.61
2023-04-02T16:55:58.943Z,12.59
2023-04-02T16:58:49.852Z,12.55
2023-04-02T17:01:25.568Z,12.57
2023-04-02T17:04:13.984Z,12.60
2023-04-02T17:07:03.974Z,12.53
2023-04-02T17:10:01.753Z,12.48
2023-04-02T17:12:49.815Z,12.42
2023-04-02T17:15:42.819Z,12.35
2023-04-02T17:18:25.750Z,12.23
2023-04-02T17:21:04.561Z,12.22
2023-04-02T17:24:01.945Z,12.20
2023-04-02T17:26:40.302Z,12.18
2023-04-02T17:29:22.163Z,12.14
2023-04-02T17:31:55.775Z,12.10
2023-04-02T17:34:28.968Z,12.10
2023-04-02T17:37:19.294Z,12.04
2023-04-02T17:39:57.106Z,12.03
2023-04-02T17:42:39.048Z,12.00
2023-04-02T17:45:31.042Z,11.98
2023-04-02T17:48:37.448Z,11.99
2023-04-02T17:51:44.540Z,11.96
2023-04-02T17:54:32.372Z,11.93
2023-04-02T17:57:40.666Z,11.92
2023-04-02T18:00:31.871Z,11.90
2023-04-02T18:03:30.418Z,11.85
2023-04-02T18:06:16.692Z,11.80
2023-04-02T18:08:55.902Z,11.84
2023-04-02T18:11:37.461Z,11.81
2023-04-02T18:14:25.049Z,11.80
2023-04-02T18:17:11.383Z,11.78
2023-04-02T18:20:10.097Z,11.75
2023-04-02T18:23:04.030Z,11.73
2023-04-02T18:25:59.104Z,11.69
2023-04-02T18:29:05.290Z,11.64
2023-04-02T18:31:54.169Z,11.59
2023-04-02T18:35:02.114Z,11.59
2023-04-02T18:38:03.548Z,11.50
2023-04-02T18:40:50.485Z,11.53
2023-04-02T18:44:09.014Z,11.48
2023-04-02T18:47:21.024Z,11.46
2023-04-02T18:50:15.102Z,11.52
2023-04-02T18:52:54.142Z,11.55
2023-04-02T18:55:32.545Z,11.50
2023-04-02T18:58:23.548Z,11.48
2023-04-02T19:00:57.579Z,11.51
2023-04-02T19:03:55.965Z,11.43
2023-04-02T19:06:41.537Z,11.44
2023-04-02T19:09:22.936Z,11.35
2023-04-02T19:11:56.119Z,11.33
2023-04-02T19:14:30.408Z,11.23
2023-04-02T19:17:13.320Z,11.20
2023-04-02T19:20:23.305Z,11.16
2023-04-02T19:23:18.037Z,10.94
2023-04-02T19:26:08.916Z,10.87
2023-04-02T19:29:02.217Z,10.91
2023-04-02T19:31:51.089Z,10.81
2023-04-02T19:34:52.084Z,10.77
2023-04-02T19:37:41.675Z,10.79
2023-04-02T19:40:34.590Z,10.76
2023-04-02T19:43:08.754Z,10.74
2023-04-02T19:45:48.979Z,10.74
2023-04-02T19:48:27.391Z,10.75
2023-04-02T19:51:00.246Z,10.66
2023-04-02T19:53:33.810Z,10.66
2023-04-02T19:56:06.836Z,10.58
2023-04-02T19:58:39.621Z,10.52
2023-04-02T20:01:12.720Z,10.51
2023-04-02T20:03:45.670Z,10.48
2023-04-02T20:06:19.070Z,10.50
2023-04-02T20:08:52.351Z,10.49
2023-04-02T20:11:25.564Z,10.42
2023-04-02T20:13:58.527Z,10.35
2023-04-02T20:16:31.393Z,10.37
2023-04-02T20:19:04.284Z,10.34
2023-04-02T20:21:39.360Z,10.29
2023-04-02T20:24:12.147Z,10.21
2023-04-02T20:26:44.741Z,10.26
2023-04-02T20:29:17.440Z,10.28
2023-04-02T20:31:50.466Z,10.28
2023-04-02T20:34:23.971Z,10.28
2023-04-02T20:36:57.013Z,10.34
2023-04-02T20:39:29.959Z,10.29
2023-04-02T20:42:03.256Z,10.22
2023-04-02T20:44:36.578Z,10.13
2023-04-02T20:47:11.252Z,10.09
2023-04-02T20:49:44.521Z,10.17
2023-04-02T20:52:17.906Z,10.19
2023-04-02T20:54:51.060Z,10.20
2023-04-02T20:57:26.052Z,10.14
2023-04-02T20:59:59.591Z,10.14
2023-04-02T21:02:33.000Z,10.17
2023-04-02T21:05:06.810Z,10.19
2023-04-02T21:07:40.734Z,10.20
2023-04-02T21:10:13.939Z,10.20
2023-04-02T21:12:47.356Z,10.18
2023-04-02T21:15:20.429Z,10.15
2023-04-02T21:17:53.594Z,10.18
2023-04-02T21:20:27.397Z,10.16
2023-04-02T21:23:00.730Z,10.12
2023-04-02T21:25:34.488Z,10.08
2023-04-02T21:28:08.146Z,9.94
2023-04-02T21:30:41.358Z,9.99
2023-04-02T21:33:14.111Z,10.06
2023-04-02T21:35:47.521Z,10.11
2023-04-02T21:38:21.043Z,10.09
2023-04-02T21:40:54.489Z,10.07
2023-04-02T21:43:27.380Z,9.98
2023-04-02T21:46:01.985Z,9.98
2023-04-02T21:48:45.444Z,10.03
2023-04-02T21:51:20.542Z,10.09
2023-04-02T21:53:55.645Z,10.04
2023-04-02T21:56:34.892Z,10.09
2023-04-02T21:59:09.733Z,10.13
2023-04-02T22:01:49.131Z,10.15
2023-04-02T22:04:24.807Z,10.16
2023-04-02T22:06:58.011Z,10.15
2023-04-02T22:09:31.443Z,10.07
2023-04-02T22:12:07.306Z,10.09
2023-04-02T22:14:40.287Z,10.13
2023-04-02T22:17:13.367Z,10.13
2023-04-02T22:19:46.994Z,10.09
2023-04-02T22:22:20.151Z,10.02
2023-04-02T22:24:53.275Z,10.09
2023-04-02T22:27:26.512Z,10.06
2023-04-02T22:29:59.501Z,9.97
2023-04-02T22:32:33.266Z,10.01
2023-04-02T22:35:06.873Z,10.02
2023-04-02T22:37:39.762Z,10.07
2023-04-02T22:40:13.171Z,10.05
2023-04-02T22:42:47.392Z,10.03
2023-04-02T22:45:21.862Z,10.02
2023-04-02T22:47:54.783Z,10.12
2023-04-02T22:50:27.978Z,10.07
2023-04-02T22:53:00.978Z,10.01
2023-04-02T22:55:34.009Z,9.99
2023-04-02T22:58:06.978Z,9.95
2023-04-02T23:00:41.020Z,9.97
2023-04-02T23:03:13.846Z,9.95
2023-04-02T23:05:47.618Z,9.92
2023-04-02T23:08:20.591Z,9.91
2023-04-02T23:10:53.754Z,9.92
2023-04-02T23:13:26.554Z,9.92
2023-04-02T23:15:59.745Z,9.92
2023-04-02T23:18:35.148Z,9.92
2023-04-02T23:21:09.061Z,9.78
2023-04-02T23:23:42.447Z,9.86
2023-04-02T23:26:20.405Z,9.81
2023-04-02T23:28:54.923Z,9.85
2023-04-02T23:31:29.182Z,9.80
2023-04-02T23:34:02.349Z,9.82
2023-04-02T23:36:36.671Z,9.85
2023-04-02T23:39:15.377Z,9.77
2023-04-02T23:41:49.407Z,9.65
2023-04-02T23:44:23.008Z,9.72
2023-04-02T23:46:56.959Z,9.67
2023-04-02T23:49:30.126Z,9.66
2023-04-02T23:52:03.385Z,9.64
2023-04-02T23:54:36.711Z,9.60
2023-04-02T23:57:09.999Z,9.62
2023-04-02T23:59:43.356Z,9.60
